Time;durP1;ratioP1;P1;durP2;ratioP2;P2;SDS_P1;SDS_P2;PMS_P1;PMS_P2;Temp;Humidity;BMP_temperature;BMP_pressure;BME280_temperature;BME280_humidity;BME280_pressure;Samples;Min_cycle;Max_cycle;Signal;HPM_P1;HPM_P2
2023/12/31 02:02:07;;;;;;;3.07;1.03;;;10.50;99.90;;;;;;5823901;23;20059;-78
2023/12/31 02:04:33;;;;;;;3.63;1.27;;;10.50;99.90;;;;;;4979937;28;38703;-81
2023/12/31 02:07:00;;;;;;;3.43;1.23;;;10.50;99.90;;;;;;4964594;28;37483;-80
2023/12/31 02:09:28;;;;;;;2.90;1.03;;;10.50;99.90;;;;;;4961415;28;38308;-80
2023/12/31 02:11:55;;;;;;;2.33;1.10;;;10.50;99.90;;;;;;4960565;28;36438;-81
2023/12/31 02:14:21;;;;;;;2.00;1.20;;;10.50;99.90;;;;;;4946834;28;39244;-80
2023/12/31 02:16:48;;;;;;;2.87;1.17;;;10.50;99.90;;;;;;4963534;28;37534;-80
2023/12/31 02:19:17;;;;;;;6.40;1.40;;;10.40;99.90;;;;;;4981211;28;38205;-80
2023/12/31 02:21:44;;;;;;;2.03;1.00;;;10.40;99.90;;;;;;4960583;28;36694;-80
2023/12/31 02:24:18;;;;;;;4.20;1.20;;;10.40;99.90;;;;;;4962969;28;39160;-80
2023/12/31 02:26:44;;;;;;;2.30;0.97;;;10.40;99.90;;;;;;4947805;28;38861;-81
2023/12/31 02:29:13;;;;;;;9.13;1.30;;;10.30;99.90;;;;;;4957858;28;37543;-80
2023/12/31 02:31:40;;;;;;;1.80;1.00;;;10.30;99.90;;;;;;4961290;28;37546;-81
2023/12/31 02:34:11;;;;;;;2.53;1.57;;;10.30;99.90;;;;;;4958203;28;41363;-81
2023/12/31 02:36:40;;;;;;;4.00;1.00;;;10.30;99.90;;;;;;4966373;28;39611;-80
2023/12/31 02:39:14;;;;;;;5.00;1.40;;;10.20;99.90;;;;;;4955503;28;36377;-81
2023/12/31 02:41:41;;;;;;;3.97;0.97;;;10.20;99.90;;;;;;4977255;28;37228;-81
2023/12/31 02:44:08;;;;;;;1.57;1.20;;;10.20;99.90;;;;;;4958863;28;39247;-80
2023/12/31 02:46:36;;;;;;;3.37;1.30;;;10.20;99.90;;;;;;4945482;28;37380;-80
2023/12/31 02:49:06;;;;;;;5.10;1.53;;;10.10;99.90;;;;;;4976559;28;38055;-81
2023/12/31 02:51:33;;;;;;;2.80;1.10;;;10.10;99.90;;;;;;4963834;28;36256;-80
2023/12/31 02:53:59;;;;;;;1.87;1.17;;;10.00;99.90;;;;;;4965630;28;39221;-81
2023/12/31 02:56:26;;;;;;;4.50;1.40;;;10.00;99.90;;;;;;4964535;28;40025;-81
2023/12/31 02:58:52;;;;;;;2.40;1.20;;;10.00;99.90;;;;;;4961805;28;38907;-80
2023/12/31 03:01:19;;;;;;;3.67;1.80;;;9.90;99.90;;;;;;4966389;28;36513;-80
2023/12/31 03:03:45;;;;;;;4.17;1.10;;;9.90;99.90;;;;;;4967298;28;39834;-81
2023/12/31 03:06:15;;;;;;;4.37;1.57;;;9.90;99.90;;;;;;4963520;28;38266;-80
2023/12/31 03:08:44;;;;;;;3.37;1.07;;;9.90;99.90;;;;;;4966226;28;37548;-80
2023/12/31 03:11:17;;;;;;;2.70;1.13;;;9.80;99.90;;;;;;4966880;28;37938;-80
2023/12/31 03:13:44;;;;;;;4.43;1.40;;;9.90;99.90;;;;;;4966234;28;38491;-81
2023/12/31 03:16:11;;;;;;;3.90;1.50;;;9.90;99.90;;;;;;4961361;28;37382;-80
2023/12/31 03:18:39;;;;;;;2.47;1.23;;;9.80;99.90;;;;;;4966499;28;39841;-81
2023/12/31 03:21:05;;;;;;;3.00;1.33;;;9.80;99.90;;;;;;4955640;28;37535;-81
2023/12/31 03:23:31;;;;;;;2.33;1.40;;;9.80;99.90;;;;;;4963552;28;38289;-80
2023/12/31 03:25:58;;;;;;;4.53;1.57;;;9.80;99.90;;;;;;4969014;28;41135;-80
2023/12/31 03:28:24;;;;;;;4.13;1.40;;;9.80;99.90;;;;;;4957330;28;39370;-80
2023/12/31 03:30:50;;;;;;;2.37;1.50;;;9.80;99.90;;;;;;4951302;28;36107;-81
2023/12/31 03:33:17;;;;;;;2.70;1.43;;;9.80;99.90;;;;;;4954597;28;38725;-81
2023/12/31 03:35:52;;;;;;;6.80;1.27;;;9.80;99.90;;;;;;4953859;28;39366;-82
2023/12/31 03:38:19;;;;;;;4.43;1.37;;;9.70;99.90;;;;;;4961857;28;38008;-80
2023/12/31 03:40:47;;;;;;;4.83;2.20;;;9.80;99.90;;;;;;4966763;28;37939;-80
2023/12/31 03:43:14;;;;;;;3.53;1.47;;;9.80;99.90;;;;;;4964504;28;39928;-80
2023/12/31 03:45:40;;;;;;;3.60;1.40;;;9.70;99.90;;;;;;4960503;28;38951;-82
2023/12/31 03:48:06;;;;;;;3.57;1.47;;;9.70;99.90;;;;;;4962085;28;37355;-80
2023/12/31 03:50:33;;;;;;;2.07;1.50;;;9.70;99.90;;;;;;4971591;28;37056;-81
2023/12/31 03:52:59;;;;;;;2.50;1.47;;;9.80;99.90;;;;;;4971110;28;37625;-81
2023/12/31 03:55:31;;;;;;;3.20;1.23;;;9.80;99.90;;;;;;4972617;28;37636;-79
2023/12/31 03:57:59;;;;;;;3.80;1.80;;;9.80;99.90;;;;;;4970385;28;39468;-80
2023/12/31 04:00:25;;;;;;;3.23;1.50;;;9.80;99.90;;;;;;4969327;28;37623;-80
2023/12/31 04:02:51;;;;;;;3.23;1.40;;;9.80;99.90;;;;;;4959081;28;40390;-80
2023/12/31 04:05:17;;;;;;;3.30;1.50;;;9.80;99.90;;;;;;4958506;28;38393;-80
2023/12/31 04:07:44;;;;;;;3.13;1.43;;;9.80;99.90;;;;;;4959901;28;36802;-81
2023/12/31 04:10:11;;;;;;;2.97;1.33;;;9.80;99.90;;;;;;4957453;28;36771;-81
2023/12/31 04:12:37;;;;;;;3.47;1.60;;;9.80;99.90;;;;;;4962777;28;39732;-80
2023/12/31 04:15:07;;;;;;;5.50;1.70;;;9.80;99.90;;;;;;4961273;28;38503;-81
2023/12/31 04:17:34;;;;;;;3.73;1.40;;;9.80;99.90;;;;;;4976186;28;47157;-80
2023/12/31 04:20:02;;;;;;;3.93;2.00;;;9.80;99.90;;;;;;4960647;28;36969;-80
2023/12/31 04:22:28;;;;;;;1.40;1.20;;;9.80;99.90;;;;;;4952407;28;41043;-81
2023/12/31 04:24:54;;;;;;;2.60;1.33;;;9.80;99.90;;;;;;4962803;28;37648;-81
2023/12/31 04:27:21;;;;;;;3.57;1.73;;;9.80;99.90;;;;;;4946104;28;38353;-80
2023/12/31 04:29:47;;;;;;;2.00;1.40;;;9.80;99.90;;;;;;4963798;28;35807;-81
2023/12/31 04:32:16;;;;;;;3.23;1.90;;;9.80;99.90;;;;;;4961348;28;38273;-81
2023/12/31 04:34:44;;;;;;;2.53;1.73;;;9.80;99.90;;;;;;4962062;28;39239;-80
2023/12/31 04:37:10;;;;;;;3.50;1.60;;;9.80;99.90;;;;;;4960713;28;37079;-81
2023/12/31 04:39:36;;;;;;;2.63;1.57;;;9.80;99.90;;;;;;4965165;28;36932;-81
2023/12/31 04:42:06;;;;;;;3.13;1.43;;;9.80;99.90;;;;;;4968875;28;39443;-81
2023/12/31 04:44:32;;;;;;;3.43;1.23;;;9.80;99.90;;;;;;4960348;28;37624;-81
2023/12/31 04:46:59;;;;;;;5.37;1.53;;;9.80;99.90;;;;;;4969258;28;37557;-81
2023/12/31 04:49:25;;;;;;;4.13;1.63;;;9.80;99.90;;;;;;4945636;28;36552;-81
2023/12/31 04:51:51;;;;;;;1.57;1.40;;;9.80;99.90;;;;;;4955854;28;39058;-81
2023/12/31 04:54:18;;;;;;;5.00;1.50;;;9.80;99.90;;;;;;4963817;28;39191;-81
2023/12/31 04:56:45;;;;;;;4.53;1.70;;;9.80;99.90;;;;;;4961349;28;37225;-80
2023/12/31 04:59:18;;;;;;;3.60;1.77;;;9.90;99.90;;;;;;4958281;28;36121;-81
2023/12/31 05:01:48;;;;;;;3.77;1.53;;;9.90;99.90;;;;;;4963486;28;35226;-82
2023/12/31 05:04:17;;;;;;;3.03;1.63;;;9.90;99.90;;;;;;4957825;28;36933;-81
2023/12/31 05:06:44;;;;;;;2.27;1.30;;;9.90;99.90;;;;;;4966867;28;38199;-80
2023/12/31 05:09:12;;;;;;;2.57;1.50;;;9.90;99.90;;;;;;4962461;28;36813;-81
2023/12/31 05:11:38;;;;;;;2.20;1.60;;;9.90;99.90;;;;;;4985641;28;39911;-80
2023/12/31 05:14:05;;;;;;;1.87;1.40;;;9.90;99.90;;;;;;4956903;28;37657;-80
2023/12/31 05:16:31;;;;;;;3.80;1.47;;;9.80;99.90;;;;;;4960964;28;39207;-81
2023/12/31 05:18:59;;;;;;;5.13;1.93;;;9.90;99.90;;;;;;4959270;28;36433;-81
2023/12/31 05:21:25;;;;;;;2.83;1.83;;;9.90;99.90;;;;;;4977385;28;40016;-81
2023/12/31 05:23:53;;;;;;;2.83;1.83;;;9.80;99.90;;;;;;4961811;28;38032;-80
2023/12/31 05:26:22;;;;;;;1.87;1.50;;;9.80;99.90;;;;;;4948607;28;36193;-81
2023/12/31 05:28:49;;;;;;;4.23;2.03;;;9.80;99.90;;;;;;4971219;28;37626;-81
2023/12/31 05:31:15;;;;;;;4.27;1.87;;;9.80;99.90;;;;;;4955916;28;40238;-81
2023/12/31 05:33:42;;;;;;;3.50;1.70;;;9.80;99.90;;;;;;4972520;28;39946;-81
2023/12/31 05:36:08;;;;;;;3.27;1.70;;;9.80;99.90;;;;;;4957231;28;37270;-81
2023/12/31 05:38:35;;;;;;;3.00;1.70;;;9.70;99.90;;;;;;4945509;28;36239;-81
2023/12/31 05:41:04;;;;;;;2.83;2.07;;;9.70;99.90;;;;;;4957803;28;39347;-80
2023/12/31 05:43:31;;;;;;;2.53;1.63;;;9.80;99.90;;;;;;4949584;28;47305;-80
2023/12/31 05:45:57;;;;;;;3.30;2.00;;;9.70;99.90;;;;;;4951664;28;37075;-81
2023/12/31 05:48:24;;;;;;;5.57;2.03;;;9.80;99.90;;;;;;4960642;28;36425;-79
2023/12/31 05:50:50;;;;;;;5.23;2.60;;;9.80;99.90;;;;;;4960039;28;39998;-81
2023/12/31 05:53:27;;;;;;;3.63;1.70;;;9.80;99.90;;;;;;4961761;28;38731;-81
2023/12/31 05:55:53;;;;;;;3.40;1.70;;;9.90;99.90;;;;;;4957478;28;37901;-81
2023/12/31 05:58:20;;;;;;;4.40;2.10;;;9.90;99.90;;;;;;4956385;28;36248;-80
2023/12/31 06:00:46;;;;;;;2.90;1.80;;;9.90;99.90;;;;;;4957791;28;37549;-81
2023/12/31 06:03:13;;;;;;;2.83;2.00;;;9.90;99.90;;;;;;4953904;28;39861;-80
2023/12/31 06:05:40;;;;;;;4.07;2.10;;;9.90;99.90;;;;;;4963531;28;38575;-80
2023/12/31 06:08:07;;;;;;;4.07;2.00;;;9.90;99.90;;;;;;4953621;28;36595;-81
2023/12/31 06:10:33;;;;;;;4.10;2.10;;;9.90;99.90;;;;;;4970010;28;39537;-80
2023/12/31 06:13:03;;;;;;;2.33;1.83;;;9.90;99.90;;;;;;4958458;28;38211;-81
2023/12/31 06:15:32;;;;;;;6.17;1.90;;;9.90;99.90;;;;;;4966203;28;49162;-81
2023/12/31 06:17:59;;;;;;;4.60;1.67;;;9.80;99.90;;;;;;4964352;28;36285;-80
2023/12/31 06:20:25;;;;;;;2.83;1.77;;;9.90;99.90;;;;;;4960431;28;40430;-80
2023/12/31 06:22:51;;;;;;;2.83;2.13;;;9.80;99.90;;;;;;4977763;28;38049;-81
2023/12/31 06:25:18;;;;;;;3.37;2.00;;;9.80;99.90;;;;;;4964873;28;37414;-80
2023/12/31 06:27:44;;;;;;;3.23;1.80;;;9.80;99.90;;;;;;4968608;28;37579;-81
2023/12/31 06:30:11;;;;;;;3.97;1.97;;;9.80;99.90;;;;;;4972815;28;37795;-81
2023/12/31 06:32:37;;;;;;;3.30;2.00;;;9.90;99.90;;;;;;4978542;28;37707;-80
2023/12/31 06:35:05;;;;;;;5.30;2.10;;;9.90;99.90;;;;;;4974393;28;37397;-81
2023/12/31 06:37:32;;;;;;;2.33;1.93;;;10.00;99.90;;;;;;4971576;28;48612;-80
2023/12/31 06:39:58;;;;;;;3.67;2.00;;;9.90;99.90;;;;;;4978641;28;38249;-81
2023/12/31 06:42:24;;;;;;;3.47;2.40;;;10.00;99.90;;;;;;4970932;28;37129;-81
2023/12/31 06:44:50;;;;;;;3.77;1.90;;;10.00;99.90;;;;;;4965279;28;39638;-80
2023/12/31 06:47:17;;;;;;;3.33;2.20;;;9.90;99.90;;;;;;4958501;28;37599;-80
2023/12/31 06:49:43;;;;;;;3.47;2.20;;;9.90;99.90;;;;;;4960759;28;38972;-81
2023/12/31 06:52:10;;;;;;;5.43;2.07;;;9.90;99.90;;;;;;4976291;28;38464;-80
2023/12/31 06:54:36;;;;;;;2.70;2.33;;;9.90;99.90;;;;;;4976950;28;37010;-80
2023/12/31 06:57:02;;;;;;;3.27;2.53;;;9.80;99.90;;;;;;4958961;28;36104;-80
2023/12/31 06:59:28;;;;;;;2.93;2.33;;;9.80;99.90;;;;;;4957758;28;37874;-78
2023/12/31 07:01:54;;;;;;;2.50;2.13;;;9.70;99.90;;;;;;4957021;28;38518;-79
2023/12/31 07:04:20;;;;;;;3.50;2.40;;;9.60;99.90;;;;;;4955459;28;36226;-81
2023/12/31 07:06:47;;;;;;;4.13;2.90;;;9.60;99.90;;;;;;4957731;28;37010;-79
2023/12/31 07:09:14;;;;;;;2.83;2.50;;;9.60;99.90;;;;;;4953501;28;37525;-80
2023/12/31 07:11:40;;;;;;;2.33;2.13;;;9.60;99.90;;;;;;4957518;28;38707;-80
2023/12/31 07:14:06;;;;;;;4.93;2.60;;;9.60;99.90;;;;;;4950955;28;36770;-79
2023/12/31 07:16:32;;;;;;;5.00;2.70;;;9.60;99.90;;;;;;4946697;28;36593;-79
2023/12/31 07:18:58;;;;;;;5.50;2.47;;;9.60;99.90;;;;;;4955111;28;39962;-79
2023/12/31 07:21:24;;;;;;;5.83;2.80;;;9.60;99.90;;;;;;4950279;28;37097;-80
2023/12/31 07:23:51;;;;;;;4.40;2.57;;;9.60;99.90;;;;;;4946392;28;37950;-80
2023/12/31 07:26:28;;;;;;;3.90;2.77;;;9.60;99.90;;;;;;4949765;28;37041;-80
2023/12/31 07:28:54;;;;;;;6.80;2.80;;;9.60;99.90;;;;;;4953217;28;39234;-80
2023/12/31 07:31:21;;;;;;;6.87;2.80;;;9.60;99.90;;;;;;4951447;28;37454;-80
2023/12/31 07:33:47;;;;;;;4.77;2.93;;;9.60;99.90;;;;;;4961797;28;37478;-79
2023/12/31 07:38:49;;;;;;;3.10;2.50;;;9.60;99.90;;;;;;5088790;23;20925;-81
2023/12/31 07:41:16;;;;;;;2.97;2.67;;;9.60;99.90;;;;;;4983589;28;37639;-79
2023/12/31 07:43:42;;;;;;;5.70;2.60;;;9.60;99.90;;;;;;4984613;28;38525;-80
2023/12/31 07:46:09;;;;;;;4.80;2.60;;;9.60;99.90;;;;;;4989181;28;36050;-78
2023/12/31 07:48:36;;;;;;;4.73;2.20;;;9.60;99.90;;;;;;4986730;28;37735;-79
2023/12/31 07:51:03;;;;;;;3.23;2.70;;;9.60;99.90;;;;;;4981828;28;38910;-78
2023/12/31 07:53:31;;;;;;;3.17;2.53;;;9.60;99.90;;;;;;4975305;28;37392;-78
2023/12/31 07:55:57;;;;;;;3.30;2.57;;;9.60;99.90;;;;;;4981777;28;36723;-79
2023/12/31 07:58:26;;;;;;;3.70;2.47;;;9.60;99.90;;;;;;4991942;28;37352;-79
2023/12/31 08:00:59;;;;;;;5.47;2.60;;;9.60;99.90;;;;;;4998536;28;37767;-80
2023/12/31 08:03:27;;;;;;;2.43;1.30;;;9.60;99.90;;;;;;5006670;28;38447;-79
2023/12/31 08:05:53;;;;;;;2.20;0.90;;;9.40;99.90;;;;;;5009086;28;36520;-80
2023/12/31 08:08:23;;;;;;;2.90;0.60;;;9.20;99.90;;;;;;5002370;28;39348;-80
2023/12/31 08:10:49;;;;;;;3.23;0.67;;;9.00;99.90;;;;;;5014445;28;37515;-82
2023/12/31 08:13:27;;;;;;;3.97;0.63;;;8.80;99.90;;;;;;5013807;28;38211;-80
2023/12/31 08:15:53;;;;;;;3.27;0.97;;;8.80;99.90;;;;;;5013737;28;37761;-79
2023/12/31 08:18:21;;;;;;;4.77;1.30;;;8.80;99.90;;;;;;5011723;28;39905;-79
2023/12/31 08:20:47;;;;;;;5.13;1.23;;;9.00;99.90;;;;;;5003321;28;37630;-78
2023/12/31 08:23:13;;;;;;;6.07;1.20;;;9.20;99.90;;;;;;4986607;28;36993;-78
2023/12/31 08:25:39;;;;;;;4.80;1.20;;;9.20;99.90;;;;;;4985267;28;37296;-78
2023/12/31 08:28:08;;;;;;;2.43;0.67;;;9.10;99.90;;;;;;5006682;28;39176;-80
2023/12/31 08:30:34;;;;;;;1.63;0.70;;;9.10;99.90;;;;;;5014110;28;38988;-80
2023/12/31 08:33:00;;;;;;;5.47;0.80;;;9.00;99.90;;;;;;5015493;28;37870;-79
2023/12/31 08:35:26;;;;;;;5.00;1.20;;;9.00;99.90;;;;;;5014696;28;38495;-80
2023/12/31 08:37:52;;;;;;;6.60;0.97;;;8.90;99.90;;;;;;5041690;23;38712;-80
2023/12/31 08:40:28;;;;;;;5.10;0.73;;;8.90;99.90;;;;;;4999140;28;37873;-82
2023/12/31 08:43:07;;;;;;;4.83;0.93;;;8.90;99.90;;;;;;4980544;28;38182;-80
2023/12/31 08:45:39;;;;;;;5.93;0.50;;;9.00;99.90;;;;;;4977595;28;49316;-80
2023/12/31 08:48:07;;;;;;;6.43;0.80;;;9.00;99.90;;;;;;4988638;28;38022;-80
2023/12/31 08:50:42;;;;;;;4.07;0.70;;;9.10;99.90;;;;;;4984925;28;39846;-81
2023/12/31 08:53:09;;;;;;;2.50;0.53;;;9.10;99.90;;;;;;4988554;28;37009;-80
2023/12/31 08:55:44;;;;;;;2.70;0.80;;;9.20;99.90;;;;;;4984899;28;36076;-80
2023/12/31 08:58:14;;;;;;;4.73;0.50;;;9.20;99.90;;;;;;4970378;28;37779;-79
2023/12/31 09:00:57;;;;;;;1.80;0.50;;;9.30;99.90;;;;;;4974480;28;38285;-82
2023/12/31 09:03:36;;;;;;;3.00;1.60;;;9.30;99.90;;;;;;4984800;28;38629;-82
2023/12/31 09:06:03;;;;;;;4.93;1.93;;;9.40;99.90;;;;;;4966488;28;36270;-80
2023/12/31 09:08:30;;;;;;;2.60;1.00;;;9.40;99.90;;;;;;4992780;28;39568;-80
2023/12/31 09:10:59;;;;;;;2.27;1.30;;;9.40;99.90;;;;;;4971936;28;37436;-80
2023/12/31 09:13:26;;;;;;;3.67;1.00;;;9.40;99.90;;;;;;4968267;28;39039;-78
2023/12/31 09:15:55;;;;;;;4.33;1.27;;;9.40;99.90;;;;;;4966903;28;36627;-79
2023/12/31 09:18:23;;;;;;;3.80;0.77;;;9.40;99.90;;;;;;4969852;28;39420;-79
2023/12/31 09:20:50;;;;;;;3.93;0.97;;;9.50;99.90;;;;;;4985034;28;37481;-80
2023/12/31 09:23:17;;;;;;;1.03;0.50;;;9.50;99.90;;;;;;4970941;28;39183;-80
2023/12/31 09:25:44;;;;;;;2.37;0.70;;;9.50;99.90;;;;;;4966293;28;36104;-79
2023/12/31 09:28:10;;;;;;;3.13;0.50;;;9.50;99.90;;;;;;4957412;28;37672;-79
2023/12/31 09:30:36;;;;;;;2.37;0.90;;;9.50;99.90;;;;;;4968759;28;38534;-79
2023/12/31 09:33:02;;;;;;;3.20;1.07;;;9.60;99.90;;;;;;4964635;28;37142;-79
2023/12/31 09:35:29;;;;;;;1.07;0.50;;;9.60;99.90;;;;;;4980538;28;36065;-78
2023/12/31 09:37:55;;;;;;;2.00;0.50;;;9.70;99.90;;;;;;4963195;28;37559;-79
2023/12/31 09:43:01;;;;;;;1.67;0.67;;;9.80;99.90;;;;;;5943196;23;20051;-82
2023/12/31 09:45:35;;;;;;;1.30;0.67;;;9.90;99.90;;;;;;4993790;28;37304;-81
2023/12/31 09:48:02;;;;;;;1.43;0.30;;;9.90;99.90;;;;;;4992966;28;37450;-80
2023/12/31 09:50:52;;;;;;;1.40;0.47;;;9.90;99.90;;;;;;4985476;28;48967;-83
2023/12/31 09:54:11;;;;;;;0.50;0.40;;;9.90;99.90;;;;;;4993410;28;40868;-82
2023/12/31 09:56:59;;;;;;;1.20;0.60;;;9.90;99.90;;;;;;4962122;28;50155;-82
2023/12/31 10:02:18;;;;;;;2.83;0.90;;;9.80;99.90;;;;;;5347078;23;20114;-81
2023/12/31 10:04:48;;;;;;;2.73;0.97;;;9.70;99.90;;;;;;4994755;28;40728;-82
2023/12/31 10:07:15;;;;;;;2.53;0.90;;;9.70;99.90;;;;;;4990810;28;37163;-82
2023/12/31 10:09:42;;;;;;;3.73;1.40;;;9.70;99.90;;;;;;4991322;28;38642;-80
2023/12/31 10:12:10;;;;;;;3.27;1.50;;;9.60;99.90;;;;;;4993885;28;41105;-83
2023/12/31 10:14:38;;;;;;;5.03;2.97;;;9.60;99.90;;;;;;5009870;28;38101;-82
2023/12/31 10:17:10;;;;;;;3.37;0.90;;;9.70;99.90;;;;;;4992366;28;37644;-81
2023/12/31 10:19:39;;;;;;;4.47;2.00;;;9.70;99.90;;;;;;4989074;28;39183;-81
2023/12/31 10:22:13;;;;;;;1.87;0.93;;;9.80;99.90;;;;;;4993245;28;38434;-81
2023/12/31 10:24:41;;;;;;;4.07;1.67;;;9.70;99.90;;;;;;4997476;28;38186;-81
2023/12/31 10:27:19;;;;;;;2.47;1.23;;;9.70;99.90;;;;;;4991088;28;38549;-82
2023/12/31 10:32:21;;;;;;;1.77;0.87;;;9.60;99.90;;;;;;5370373;23;20055;-77
2023/12/31 10:35:03;;;;;;;4.73;1.47;;;9.50;99.90;;;;;;5189732;23;36979;-81
2023/12/31 10:37:29;;;;;;;2.00;0.90;;;9.40;99.90;;;;;;4991121;28;37261;-81
2023/12/31 10:39:55;;;;;;;2.20;0.80;;;9.20;99.90;;;;;;4993727;28;39007;-81
2023/12/31 10:42:25;;;;;;;4.90;0.93;;;9.10;99.90;;;;;;4995818;28;39950;-81
2023/12/31 10:44:57;;;;;;;4.40;1.40;;;8.90;99.90;;;;;;4985424;28;39225;-79
2023/12/31 10:47:25;;;;;;;;;;;8.90;99.90;;;;;;4969860;28;37980;-78
2023/12/31 10:49:51;;;;;;;3.77;1.20;;;8.80;99.90;;;;;;4969304;28;38015;-81
2023/12/31 10:52:19;;;;;;;4.97;0.93;;;8.70;99.90;;;;;;4973818;28;37971;-77
2023/12/31 10:54:46;;;;;;;5.93;2.20;;;8.60;99.90;;;;;;4970440;28;36999;-78
2023/12/31 10:57:14;;;;;;;25.40;16.77;;;8.60;99.90;;;;;;4978790;28;36710;-78
2023/12/31 10:59:44;;;;;;;10.93;6.67;;;8.60;99.90;;;;;;4962559;28;39389;-77
2023/12/31 11:02:17;;;;;;;17.53;12.37;;;8.60;99.90;;;;;;4984119;28;39267;-78
2023/12/31 11:04:48;;;;;;;18.77;11.73;;;8.60;99.90;;;;;;4964089;28;36786;-79
2023/12/31 11:07:16;;;;;;;14.97;10.43;;;8.60;99.90;;;;;;4966526;28;36624;-78
2023/12/31 11:09:43;;;;;;;7.33;2.60;;;8.60;99.90;;;;;;4967864;28;38750;-78
2023/12/31 11:12:10;;;;;;;6.57;2.40;;;8.70;99.90;;;;;;4971531;28;37335;-80
2023/12/31 11:14:42;;;;;;;12.90;5.70;;;8.70;99.90;;;;;;4986311;28;37041;-81
2023/12/31 11:17:36;;;;;;;9.05;2.88;;;8.70;99.90;;;;;;5006985;28;37136;-81
2023/12/31 11:20:23;;;;;;;7.83;5.20;;;8.70;99.90;;;;;;4996574;28;39281;-80
2023/12/31 11:23:06;;;;;;;8.63;3.90;;;8.80;99.90;;;;;;4983462;28;49256;-80
2023/12/31 11:25:40;;;;;;;6.33;1.10;;;8.80;99.90;;;;;;5004589;28;48633;-81
2023/12/31 11:28:07;;;;;;;5.73;1.83;;;8.80;99.90;;;;;;4992577;28;37305;-81
2023/12/31 11:30:52;;;;;;;10.87;3.87;;;8.90;99.90;;;;;;4994705;28;39929;-81
2023/12/31 11:33:24;;;;;;;12.93;7.10;;;9.00;99.90;;;;;;4994330;28;37596;-81
2023/12/31 11:35:52;;;;;;;9.30;3.00;;;9.10;99.90;;;;;;4991682;28;38842;-81
2023/12/31 11:38:34;;;;;;;5.43;3.57;;;9.10;99.90;;;;;;4963395;28;38141;-81
2023/12/31 11:41:20;;;;;;;4.10;2.23;;;9.20;99.90;;;;;;4975282;28;39505;-82
2023/12/31 11:43:51;;;;;;;7.90;1.97;;;9.30;99.90;;;;;;4955904;28;37544;-81
2023/12/31 11:46:40;;;;;;;14.17;2.97;;;9.30;99.90;;;;;;4965746;28;37690;-81
2023/12/31 11:49:12;;;;;;;7.67;1.80;;;9.30;99.90;;;;;;4967324;28;36604;-81
2023/12/31 11:52:03;;;;;;;6.25;2.47;;;9.30;99.90;;;;;;4966555;28;40511;-81
2023/12/31 11:54:41;;;;;;;9.57;2.27;;;9.40;99.90;;;;;;5004674;28;48961;-81
2023/12/31 11:57:21;;;;;;;5.90;1.70;;;9.30;99.90;;;;;;4966592;28;39634;-81
2023/12/31 11:59:50;;;;;;;4.27;1.50;;;9.30;99.90;;;;;;4951408;28;38692;-81
2023/12/31 12:02:50;;;;;;;7.87;2.30;;;9.30;99.90;;;;;;4926557;28;39311;-81
2023/12/31 12:05:44;;;;;;;5.67;1.93;;;9.20;99.90;;;;;;4975412;28;48805;-81
2023/12/31 12:08:23;;;;;;;11.27;2.70;;;9.10;99.90;;;;;;4948749;28;39405;-80
2023/12/31 12:10:59;;;;;;;5.07;1.60;;;9.10;99.90;;;;;;4985668;28;37937;-81
2023/12/31 12:13:33;;;;;;;6.97;1.03;;;9.00;99.90;;;;;;4948110;28;38701;-81
2023/12/31 12:16:03;;;;;;;4.10;0.87;;;8.90;99.90;;;;;;4955267;28;38877;-81
2023/12/31 12:18:41;;;;;;;5.50;1.00;;;8.90;99.90;;;;;;4949994;28;49859;-81
2023/12/31 12:21:12;;;;;;;6.83;1.30;;;8.80;99.90;;;;;;4969836;28;35940;-81
2023/12/31 12:23:49;;;;;;;10.40;2.07;;;8.80;99.90;;;;;;4978079;28;40094;-80
2023/12/31 12:26:22;;;;;;;12.03;1.53;;;8.90;99.90;;;;;;4977408;28;38802;-80
2023/12/31 12:28:58;;;;;;;5.43;1.10;;;9.00;99.90;;;;;;4987395;28;38977;-82
2023/12/31 12:31:52;;;;;;;8.60;3.45;;;9.10;99.90;;;;;;4914583;28;49170;-81
2023/12/31 12:34:29;;;;;;;9.87;1.83;;;9.20;99.90;;;;;;4965775;28;39819;-81
2023/12/31 12:37:24;;;;;;;7.53;1.30;;;9.40;99.90;;;;;;4983109;28;37982;-81
2023/12/31 12:40:05;;;;;;;10.27;1.83;;;9.50;99.90;;;;;;4971287;28;50171;-82
2023/12/31 12:42:35;;;;;;;10.25;1.52;;;9.60;99.90;;;;;;4994103;28;38685;-81
2023/12/31 12:45:05;;;;;;;11.43;1.80;;;9.60;99.90;;;;;;4984395;28;40426;-80
2023/12/31 12:47:36;;;;;;;11.70;2.10;;;9.60;99.90;;;;;;4963646;28;50275;-81
2023/12/31 12:50:47;;;;;;;12.38;2.22;;;9.60;99.90;;;;;;4987469;28;39828;-81
2023/12/31 12:53:28;;;;;;;10.67;1.90;;;9.60;99.90;;;;;;4950835;28;49727;-81
2023/12/31 12:56:01;;;;;;;8.73;1.83;;;9.60;99.90;;;;;;4983629;28;39343;-80
2023/12/31 12:58:40;;;;;;;9.10;1.97;;;9.70;99.90;;;;;;4970247;28;47194;-81
2023/12/31 13:01:08;;;;;;;6.37;1.83;;;9.70;99.90;;;;;;5001383;28;37714;-80
2023/12/31 13:03:45;;;;;;;10.60;1.90;;;9.70;99.90;;;;;;4983154;28;36415;-81
2023/12/31 13:06:15;;;;;;;6.67;1.50;;;9.70;99.90;;;;;;4985386;28;41546;-81
2023/12/31 13:08:42;;;;;;;7.87;1.80;;;9.70;99.90;;;;;;4983092;28;38621;-80
2023/12/31 13:11:38;;;;;;;9.17;1.70;;;9.70;99.90;;;;;;4977115;28;38912;-81
2023/12/31 13:14:09;;;;;;;10.30;2.23;;;9.80;97.50;;;;;;4977987;28;37796;-81
2023/12/31 13:16:47;;;;;;;;;;;9.80;98.10;;;;;;4976562;28;39498;-82
2023/12/31 13:19:23;;;;;;;7.67;1.33;;;9.80;96.80;;;;;;4966393;28;40034;-81
2023/12/31 13:21:50;;;;;;;14.53;2.23;;;9.80;97.60;;;;;;4962410;28;39727;-80
2023/12/31 13:24:16;;;;;;;4.90;1.00;;;9.80;93.90;;;;;;4976091;28;37506;-80
2023/12/31 13:26:42;;;;;;;10.23;1.40;;;9.80;92.50;;;;;;4976239;28;38779;-80
2023/12/31 13:29:08;;;;;;;11.17;2.20;;;9.80;87.50;;;;;;4974606;28;37027;-80
2023/12/31 13:31:36;;;;;;;10.83;2.00;;;9.80;88.00;;;;;;4976958;28;38838;-80
2023/12/31 13:34:02;;;;;;;8.27;1.80;;;9.80;80.40;;;;;;4976146;28;38039;-80
2023/12/31 13:36:29;;;;;;;7.33;1.97;;;9.80;88.10;;;;;;4980580;28;38338;-79
2023/12/31 13:38:55;;;;;;;8.07;1.70;;;9.80;87.20;;;;;;4991315;28;38720;-79
2023/12/31 13:41:23;;;;;;;9.63;1.50;;;9.80;86.20;;;;;;4963712;28;38804;-79
2023/12/31 13:43:50;;;;;;;8.50;1.90;;;9.80;82.00;;;;;;4974578;28;36008;-80
2023/12/31 13:46:16;;;;;;;16.00;4.40;;;9.70;81.80;;;;;;4977518;28;40056;-80
2023/12/31 13:48:42;;;;;;;16.80;6.07;;;9.70;81.60;;;;;;4966570;28;39168;-80
2023/12/31 13:51:09;;;;;;;12.00;2.80;;;9.70;81.90;;;;;;4970573;28;38899;-80
2023/12/31 13:53:36;;;;;;;5.53;1.47;;;9.70;90.50;;;;;;4974942;28;37493;-80
2023/12/31 13:56:02;;;;;;;17.10;2.97;;;9.70;74.60;;;;;;4963692;28;38891;-79
2023/12/31 13:58:28;;;;;;;8.83;2.00;;;9.70;76.70;;;;;;4973136;28;39010;-80
2023/12/31 14:00:55;;;;;;;7.50;1.70;;;9.80;79.10;;;;;;4982081;28;35547;-81
2023/12/31 14:03:22;;;;;;;9.33;1.90;;;9.80;72.90;;;;;;4989101;28;36013;-81
2023/12/31 14:05:49;;;;;;;11.20;2.10;;;9.80;75.80;;;;;;4991069;28;39024;-81
2023/12/31 14:08:15;;;;;;;10.70;2.17;;;9.80;81.70;;;;;;4990382;28;38397;-81
2023/12/31 14:10:41;;;;;;;12.53;2.30;;;9.80;80.50;;;;;;5008268;28;36946;-81
2023/12/31 14:13:08;;;;;;;8.40;1.77;;;9.70;74.40;;;;;;4984030;28;36889;-81
2023/12/31 14:15:34;;;;;;;15.50;2.43;;;9.70;71.60;;;;;;4993056;28;40193;-80
2023/12/31 14:18:03;;;;;;;14.10;2.77;;;9.70;67.80;;;;;;4984855;28;38633;-80
2023/12/31 14:20:30;;;;;;;8.53;1.80;;;9.80;69.10;;;;;;4981946;28;49378;-80
2023/12/31 14:22:57;;;;;;;12.20;2.53;;;9.80;71.50;;;;;;4990931;28;36767;-81
2023/12/31 14:25:24;;;;;;;8.30;1.80;;;9.80;60.80;;;;;;4987930;28;38878;-81
2023/12/31 14:27:50;;;;;;;23.23;4.53;;;9.80;59.10;;;;;;4994952;28;37619;-81
2023/12/31 14:30:17;;;;;;;11.53;2.67;;;9.80;64.50;;;;;;4985126;28;38119;-80
2023/12/31 14:32:44;;;;;;;13.60;2.90;;;9.80;56.50;;;;;;4991252;28;36257;-80
2023/12/31 14:35:10;;;;;;;9.60;2.40;;;9.80;55.10;;;;;;4987917;28;38692;-81
2023/12/31 14:37:39;;;;;;;13.13;2.23;;;9.90;44.10;;;;;;4992299;28;38790;-81
2023/12/31 14:40:15;;;;;;;18.60;4.07;;;9.90;45.00;;;;;;4985147;28;37266;-80
2023/12/31 14:42:41;;;;;;;12.80;2.37;;;9.90;43.40;;;;;;4992808;28;37568;-81
2023/12/31 14:45:08;;;;;;;8.67;1.93;;;9.90;44.10;;;;;;4988418;28;38684;-81
2023/12/31 14:47:38;;;;;;;16.27;2.60;;;9.80;49.80;;;;;;4986651;28;38969;-81
2023/12/31 14:50:06;;;;;;;11.10;2.40;;;9.80;47.30;;;;;;5010675;28;37044;-81
2023/12/31 14:52:39;;;;;;;13.33;2.43;;;9.80;40.20;;;;;;4986430;28;47769;-81
2023/12/31 14:55:05;;;;;;;12.27;2.25;;;9.90;41.10;;;;;;4990857;28;38603;-80
2023/12/31 14:57:41;;;;;;;11.83;2.23;;;9.90;39.30;;;;;;4993513;28;47459;-81
2023/12/31 15:00:09;;;;;;;12.67;2.00;;;9.90;47.00;;;;;;4991829;28;39240;-81
2023/12/31 15:02:35;;;;;;;13.97;2.20;;;9.80;44.00;;;;;;4983692;28;36132;-80
2023/12/31 15:05:04;;;;;;;14.90;3.20;;;9.80;55.10;;;;;;4991387;28;40321;-80
2023/12/31 15:07:31;;;;;;;13.77;2.67;;;9.70;84.80;;;;;;4981939;28;49486;-81
2023/12/31 15:09:58;;;;;;;13.60;3.40;;;9.50;99.90;;;;;;4998499;28;37776;-81
2023/12/31 15:12:25;;;;;;;20.00;3.23;;;9.30;99.90;;;;;;4987225;28;37138;-80
2023/12/31 15:14:52;;;;;;;20.70;3.00;;;9.20;99.90;;;;;;4984733;28;40267;-80
2023/12/31 15:17:19;;;;;;;11.27;2.07;;;9.10;99.90;;;;;;4989625;28;38553;-81
2023/12/31 15:19:45;;;;;;;18.50;3.10;;;9.00;99.90;;;;;;5009328;28;39748;-81